EWG2EL ENGM-EDDH
Flight info
| Callsign | EWG2EL |
|---|---|
| Flight time | N/A |
| Altitude | 37000 |
| Route | ENGM/01R VIPPA DCT AAL DCT LUTUS P615 ALS M852 EKERN T905 BOGMU BOGMU5A |
| Aircraft | A20N/M-SDE2E3FGHIRWXY/LB1 |
Departure
| Time | N/A |
|---|---|
| Airport | Oslo-Gardermoen International Airport (ENGM) |
Arrival
| Time | 2026-04-26 11:16 |
|---|---|
| Airport | Hamburg Helmut Schmidt Airport (EDDH) |
| Time | Latitude | Longitude | Altitude | Speed | Heading |
|---|---|---|---|---|---|
| 2026-04-26 11:15 | 53.63084 | 9.99330 | 31 ft | 0 kts | 81° |
| 2026-04-26 11:16 | 53.63086 | 9.99339 | 31 ft | 2 kts | 81° |
| 2026-04-26 11:16 | 53.63094 | 9.99387 | 31 ft | 6 kts | 64° |
| 2026-04-26 11:16 | 53.63131 | 9.99480 | 31 ft | 11 kts | 53° |
| 2026-04-26 11:17 | 53.63182 | 9.99592 | 31 ft | 12 kts | 50° |
| 2026-04-26 11:17 | 53.63227 | 9.99704 | 31 ft | 11 kts | 81° |
| 2026-04-26 11:17 | 53.63169 | 9.99808 | 29 ft | 14 kts | 154° |
| 2026-04-26 11:17 | 53.63091 | 9.99873 | 30 ft | 11 kts | 152° |
| 2026-04-26 11:18 | 53.63026 | 9.99931 | 32 ft | 10 kts | 153° |
| 2026-04-26 11:18 | 53.62968 | 9.99981 | 34 ft | 8 kts | 152° |
| 2026-04-26 11:18 | 53.62917 | 10.00034 | 35 ft | 8 kts | 140° |
| 2026-04-26 11:18 | 53.62926 | 10.00110 | 37 ft | 8 kts | 34° |
| 2026-04-26 11:19 | 53.62985 | 10.00172 | 38 ft | 11 kts | 32° |
| 2026-04-26 11:19 | 53.63052 | 10.00244 | 38 ft | 12 kts | 29° |
| 2026-04-26 11:19 | 53.63139 | 10.00254 | 38 ft | 13 kts | 356° |
| 2026-04-26 11:19 | 53.63232 | 10.00244 | 39 ft | 13 kts | 356° |
| 2026-04-26 11:20 | 53.63311 | 10.00235 | 39 ft | 8 kts | 358° |
| 2026-04-26 11:20 | 53.63326 | 10.00250 | 40 ft | 0 kts | 79° |
| 2026-04-26 11:20 | 53.63330 | 10.00295 | 41 ft | 4 kts | 85° |
| 2026-04-26 11:20 | 53.63332 | 10.00335 | 41 ft | 2 kts | 86° |
| 2026-04-26 11:21 | 53.63332 | 10.00344 | 42 ft | 0 kts | 86° |